Terminal Aerodrome Forecast
Issued by NWS Detroit/Pontiac, MI

Home | Current Version | Previous Version | Text Only | Print | Product List | Glossary On
Versions: 1 2 3 4 5 6 7 8 9 10 11 12 13 14 15 16 17 18 19 20 21 22 23 24 25 26 27
000
FTUS43 KDTX 221120
TAFDTW
TAF
KDTW 221120Z 2212/2318 16006KT 6SM -SHRA BKN045 OVC080
      TEMPO 2212/2214 4SM -RA BR SCT022 BKN035
     FM221400 16008KT 6SM BR SCT016 BKN028
     FM221900 15008KT P6SM BKN045
     FM230000 11005KT P6SM BKN045
     FM230900 12003KT 6SM BR BKN045
     FM231400 26012KT P6SM SCT050=

USA.gov is the U.S. government's official web portal to all federal, state and local government web resources and services.